createdAt,value
2017-11-09T00:00:52.131Z,82.96
2017-11-09T00:01:52.096Z,82.68
2017-11-09T00:02:52.069Z,83.06
2017-11-09T00:03:52.055Z,82.58
2017-11-09T00:04:52.015Z,82.96
2017-11-09T00:05:51.988Z,83.53
2017-11-09T00:06:51.960Z,84.20
2017-11-09T00:07:51.930Z,83.25
2017-11-09T00:08:52.159Z,82.20
2017-11-09T00:09:51.882Z,81.92
2017-11-09T00:10:51.850Z,82.96
2017-11-09T00:11:51.821Z,82.77
2017-11-09T00:12:51.798Z,82.87
2017-11-09T00:13:51.773Z,83.06
2017-11-09T00:14:51.738Z,82.96
2017-11-09T00:15:51.715Z,83.25
2017-11-09T00:16:51.689Z,82.58
2017-11-09T00:17:51.655Z,82.68
2017-11-09T00:18:51.633Z,82.58
2017-11-09T00:19:51.601Z,82.29
2017-11-09T00:20:51.590Z,82.20
2017-11-09T00:21:51.549Z,82.39
2017-11-09T00:22:51.516Z,83.06
2017-11-09T00:23:51.495Z,82.49
2017-11-09T00:24:51.468Z,82.58
2017-11-09T00:25:51.459Z,82.77
2017-11-09T00:26:51.716Z,82.20
2017-11-09T00:27:51.383Z,82.96
2017-11-09T00:28:51.353Z,82.77
2017-11-09T00:29:51.332Z,82.77
2017-11-09T00:30:51.303Z,82.87
2017-11-09T00:31:51.571Z,82.68
2017-11-09T00:32:51.243Z,82.29
2017-11-09T00:33:51.221Z,82.68
2017-11-09T00:34:51.189Z,82.96
2017-11-09T00:35:51.188Z,82.96
2017-11-09T00:36:51.137Z,83.06
2017-11-09T00:37:51.113Z,82.58
2017-11-09T00:38:51.082Z,83.06
2017-11-09T00:39:51.054Z,82.96
2017-11-09T00:40:51.035Z,82.68
2017-11-09T00:41:50.994Z,82.58
2017-11-09T00:42:50.976Z,82.39
2017-11-09T00:43:50.941Z,82.58
2017-11-09T00:44:50.916Z,82.68
2017-11-09T00:45:50.890Z,82.49
2017-11-09T00:46:50.857Z,81.73
2017-11-09T00:47:50.831Z,82.58
2017-11-09T00:48:50.804Z,82.87
2017-11-09T00:49:51.023Z,82.77
2017-11-09T00:50:50.744Z,82.39
2017-11-09T00:51:50.720Z,81.73
2017-11-09T00:52:50.693Z,81.73
2017-11-09T00:53:50.663Z,82.20
2017-11-09T00:54:50.649Z,82.20
2017-11-09T00:55:50.616Z,82.20
2017-11-09T00:56:50.588Z,81.73
2017-11-09T00:57:50.559Z,81.54
2017-11-09T00:58:50.528Z,81.73
2017-11-09T00:59:50.506Z,81.25
2017-11-09T01:00:50.774Z,81.16
2017-11-09T01:01:50.450Z,81.82
2017-11-09T01:02:50.432Z,81.82
2017-11-09T01:03:50.399Z,82.20
2017-11-09T01:04:50.365Z,81.25
2017-11-09T01:05:50.339Z,80.68
2017-11-09T01:06:50.561Z,80.87
2017-11-09T01:07:50.277Z,80.77
2017-11-09T01:08:50.257Z,80.87
2017-11-09T01:09:50.228Z,80.87
2017-11-09T01:10:50.202Z,81.25
2017-11-09T01:11:50.170Z,80.77
2017-11-09T01:12:50.142Z,80.58
2017-11-09T01:13:50.113Z,80.58
2017-11-09T01:14:50.106Z,80.11
2017-11-09T01:15:50.059Z,80.30
2017-11-09T01:16:50.034Z,80.58
2017-11-09T01:17:50.003Z,80.21
2017-11-09T01:18:49.976Z,80.11
2017-11-09T01:19:49.949Z,79.83
2017-11-09T01:20:49.929Z,80.49
2017-11-09T01:21:49.894Z,80.02
2017-11-09T01:22:49.875Z,80.40
2017-11-09T01:23:49.841Z,80.11
2017-11-09T01:24:49.818Z,79.73
2017-11-09T01:25:49.781Z,80.11
2017-11-09T01:26:49.770Z,79.44
2017-11-09T01:27:49.728Z,79.44
2017-11-09T01:28:49.697Z,79.44
2017-11-09T01:29:49.672Z,79.25
2017-11-09T01:30:49.647Z,79.63
2017-11-09T01:31:49.617Z,79.06
2017-11-09T01:32:49.592Z,79.25
2017-11-09T01:33:49.563Z,79.63
2017-11-09T01:34:49.543Z,79.35
2017-11-09T01:35:49.509Z,79.06
2017-11-09T01:36:49.478Z,79.35
2017-11-09T01:37:49.455Z,79.44
2017-11-09T01:38:49.430Z,79.44
2017-11-09T01:39:49.396Z,79.73
2017-11-09T01:40:49.372Z,79.25
2017-11-09T01:41:49.591Z,79.35
2017-11-09T01:42:49.330Z,79.35
2017-11-09T01:43:49.292Z,79.16
2017-11-09T01:44:49.257Z,79.35
2017-11-09T01:45:49.231Z,79.06
2017-11-09T01:46:49.212Z,79.44
2017-11-09T01:47:49.429Z,78.78
2017-11-09T01:48:49.149Z,78.97
2017-11-09T01:49:49.120Z,79.06
2017-11-09T01:50:49.088Z,79.16
2017-11-09T01:51:49.069Z,79.16
2017-11-09T01:52:49.035Z,79.16
2017-11-09T01:53:49.006Z,79.25
2017-11-09T01:54:48.985Z,79.06
2017-11-09T01:55:48.951Z,79.06
2017-11-09T01:56:48.923Z,79.25
2017-11-09T01:57:48.896Z,79.16
2017-11-09T01:58:48.870Z,78.97
2017-11-09T01:59:48.849Z,79.06
2017-11-09T02:00:48.812Z,78.69
2017-11-09T02:01:48.792Z,78.69
2017-11-09T02:02:48.760Z,78.78
2017-11-09T02:03:48.733Z,78.69
2017-11-09T02:04:48.703Z,78.21
2017-11-09T02:05:48.682Z,78.11
2017-11-09T02:06:48.657Z,77.92
2017-11-09T02:07:48.619Z,77.73
2017-11-09T02:08:48.596Z,77.92
2017-11-09T02:09:48.578Z,77.92
2017-11-09T02:10:48.536Z,78.30
2017-11-09T02:11:48.517Z,78.02
2017-11-09T02:12:48.481Z,78.40
2017-11-09T02:13:48.452Z,77.83
2017-11-09T02:14:48.438Z,78.30
2017-11-09T02:15:48.404Z,78.02
2017-11-09T02:16:48.620Z,77.92
2017-11-09T02:17:48.342Z,77.83
2017-11-09T02:18:48.317Z,77.55
2017-11-09T02:19:48.296Z,77.45
2017-11-09T02:20:48.267Z,77.83
2017-11-09T02:21:48.234Z,77.73
2017-11-09T02:22:48.553Z,77.55
2017-11-09T02:23:48.187Z,77.73
2017-11-09T02:24:48.157Z,77.55
2017-11-09T02:25:48.127Z,77.36
2017-11-09T02:26:48.097Z,77.07
2017-11-09T02:27:48.066Z,76.97
2017-11-09T02:28:48.039Z,76.78
2017-11-09T02:29:48.009Z,76.50
2017-11-09T02:30:47.986Z,76.50
2017-11-09T02:31:47.957Z,76.69
2017-11-09T02:32:47.928Z,76.59
2017-11-09T02:33:47.907Z,77.07
2017-11-09T02:34:48.231Z,77.45
2017-11-09T02:35:47.849Z,77.55
2017-11-09T02:36:47.830Z,77.92
2017-11-09T02:37:47.794Z,78.30
2017-11-09T02:38:47.806Z,78.02
2017-11-09T02:39:47.741Z,78.21
2017-11-09T02:40:47.719Z,78.88
2017-11-09T02:41:47.681Z,78.59
2017-11-09T02:42:47.655Z,78.21
2017-11-09T02:43:47.624Z,78.59
2017-11-09T02:44:47.597Z,78.21
2017-11-09T02:45:47.567Z,78.88
2017-11-09T02:46:47.543Z,78.69
2017-11-09T02:47:47.524Z,78.40
2017-11-09T02:48:47.487Z,78.78
2017-11-09T02:49:47.461Z,78.21
2017-11-09T02:50:47.430Z,78.59
2017-11-09T02:51:47.409Z,78.78
2017-11-09T02:52:47.634Z,78.59
2017-11-09T02:53:47.348Z,78.69
2017-11-09T02:54:47.318Z,78.69
2017-11-09T02:55:47.293Z,78.30
2017-11-09T02:56:47.275Z,78.69
2017-11-09T02:57:47.240Z,78.69
2017-11-09T02:58:47.213Z,78.69
2017-11-09T02:59:47.181Z,78.88
2017-11-09T03:00:47.162Z,78.30
2017-11-09T03:01:47.126Z,78.78
2017-11-09T03:02:47.108Z,78.02
2017-11-09T03:03:47.075Z,78.21
2017-11-09T03:04:47.048Z,78.21
2017-11-09T03:05:47.019Z,78.50
2017-11-09T03:06:47.020Z,78.30
2017-11-09T03:07:46.960Z,78.02
2017-11-09T03:08:46.956Z,77.92
2017-11-09T03:09:47.255Z,78.40
2017-11-09T03:10:46.880Z,77.73
2017-11-09T03:11:46.852Z,77.92
2017-11-09T03:12:46.836Z,78.02
2017-11-09T03:13:46.792Z,78.21
2017-11-09T03:14:46.765Z,77.73
2017-11-09T03:15:46.738Z,78.11
2017-11-09T03:16:46.712Z,77.83
2017-11-09T03:17:46.683Z,77.98
2017-11-09T03:18:46.662Z,77.64
2017-11-09T03:19:46.631Z,77.60
2017-11-09T03:20:46.606Z,77.73
2017-11-09T03:21:46.828Z,77.41
2017-11-09T03:22:46.558Z,77.45
2017-11-09T03:23:46.517Z,77.83
2017-11-09T03:24:46.489Z,77.51
2017-11-09T03:25:46.464Z,77.60
2017-11-09T03:26:46.435Z,77.45
2017-11-09T03:27:46.722Z,77.60
2017-11-09T03:28:46.382Z,77.51
2017-11-09T03:29:46.353Z,77.83
2017-11-09T03:30:46.323Z,77.60
2017-11-09T03:31:46.298Z,77.41
2017-11-09T03:32:46.270Z,77.51
2017-11-09T03:33:46.241Z,77.22
2017-11-09T03:34:46.217Z,77.41
2017-11-09T03:35:46.183Z,77.64
2017-11-09T03:36:46.154Z,77.12
2017-11-09T03:37:46.137Z,77.31
2017-11-09T03:38:46.111Z,77.12
2017-11-09T03:39:46.077Z,76.93
2017-11-09T03:40:46.043Z,76.56
2017-11-09T03:41:46.019Z,76.46
2017-11-09T03:42:45.988Z,77.22
2017-11-09T03:43:45.965Z,76.56
2017-11-09T03:44:45.934Z,76.37
2017-11-09T03:45:46.206Z,76.65
2017-11-09T03:46:45.882Z,76.08
2017-11-09T03:47:45.853Z,76.56
2017-11-09T03:48:45.829Z,76.46
2017-11-09T03:49:45.796Z,76.37
2017-11-09T03:50:45.769Z,76.37
2017-11-09T03:51:45.991Z,75.89
2017-11-09T03:52:45.718Z,76.08
2017-11-09T03:53:45.696Z,75.89
2017-11-09T03:54:45.661Z,75.51
2017-11-09T03:55:45.634Z,75.60
2017-11-09T03:56:45.601Z,75.70
2017-11-09T03:57:45.680Z,75.60
2017-11-09T03:58:45.556Z,75.51
2017-11-09T03:59:45.517Z,75.89
2017-11-09T04:00:45.496Z,75.23
2017-11-09T04:01:45.463Z,75.04
2017-11-09T04:02:45.737Z,75.04
2017-11-09T04:03:45.408Z,74.94
2017-11-09T04:04:45.383Z,75.13
2017-11-09T04:05:45.351Z,75.79
2017-11-09T04:06:45.329Z,75.32
2017-11-09T04:07:45.295Z,75.13
2017-11-09T04:08:45.267Z,75.32
2017-11-09T04:09:45.247Z,75.13
2017-11-09T04:10:45.217Z,75.13
2017-11-09T04:11:45.188Z,74.75
2017-11-09T04:12:45.159Z,74.85
2017-11-09T04:13:45.126Z,75.04
2017-11-09T04:14:45.109Z,74.75
2017-11-09T04:15:45.076Z,74.56
2017-11-09T04:16:45.048Z,74.66
2017-11-09T04:17:45.016Z,75.51
2017-11-09T04:18:44.991Z,75.13
2017-11-09T04:19:44.961Z,74.85
2017-11-09T04:20:44.940Z,74.75
2017-11-09T04:21:44.907Z,74.66
2017-11-09T04:22:44.888Z,74.27
2017-11-09T04:23:44.854Z,74.27
2017-11-09T04:24:44.828Z,74.37
2017-11-09T04:25:44.797Z,74.66
2017-11-09T04:26:45.071Z,73.71
2017-11-09T04:27:44.742Z,74.18
2017-11-09T04:28:44.717Z,74.37
2017-11-09T04:29:44.684Z,74.37
2017-11-09T04:30:44.657Z,74.75
2017-11-09T04:31:44.625Z,74.66
2017-11-09T04:32:44.604Z,75.13
2017-11-09T04:33:44.573Z,74.85
2017-11-09T04:34:44.546Z,74.75
2017-11-09T04:35:44.516Z,74.66
2017-11-09T04:36:44.495Z,74.66
2017-11-09T04:37:44.462Z,74.85
2017-11-09T04:38:44.432Z,75.32
2017-11-09T04:39:44.405Z,75.51
2017-11-09T04:40:44.381Z,74.94
2017-11-09T04:41:44.350Z,74.47
2017-11-09T04:42:44.328Z,74.66
2017-11-09T04:43:44.550Z,74.47
2017-11-09T04:44:44.269Z,74.75
2017-11-09T04:45:44.243Z,74.56
2017-11-09T04:46:44.218Z,74.37
2017-11-09T04:47:44.186Z,74.37
2017-11-09T04:48:44.162Z,74.18
2017-11-09T04:49:44.129Z,74.08
2017-11-09T04:50:44.109Z,74.37
2017-11-09T04:51:44.074Z,73.61
2017-11-09T04:52:44.044Z,73.99
2017-11-09T04:53:44.019Z,74.56
2017-11-09T04:54:43.986Z,74.27
2017-11-09T04:55:44.261Z,74.18
2017-11-09T04:56:43.930Z,74.27
2017-11-09T04:57:43.907Z,74.18
2017-11-09T04:58:43.878Z,73.90
2017-11-09T04:59:43.853Z,74.37
2017-11-09T05:00:43.819Z,74.18
2017-11-09T05:01:44.092Z,74.08
2017-11-09T05:02:43.774Z,74.66
2017-11-09T05:03:43.745Z,73.99
2017-11-09T05:04:43.714Z,74.27
2017-11-09T05:05:43.683Z,74.56
2017-11-09T05:06:43.654Z,74.66
2017-11-09T05:07:43.878Z,75.04
2017-11-09T05:08:43.598Z,74.47
2017-11-09T05:09:43.573Z,74.75
2017-11-09T05:10:43.540Z,74.75
2017-11-09T05:11:43.514Z,74.66
2017-11-09T05:12:43.486Z,74.08
2017-11-09T05:13:43.457Z,73.99
2017-11-09T05:14:43.439Z,73.90
2017-11-09T05:15:43.404Z,74.18
2017-11-09T05:16:43.376Z,74.56
2017-11-09T05:17:43.346Z,74.08
2017-11-09T05:18:43.568Z,74.08
2017-11-09T05:19:43.289Z,74.37
2017-11-09T05:20:43.286Z,74.08
2017-11-09T05:21:43.234Z,73.99
2017-11-09T05:22:43.224Z,74.18
2017-11-09T05:23:43.181Z,74.18
2017-11-09T05:24:43.150Z,74.08
2017-11-09T05:25:43.127Z,74.37
2017-11-09T05:26:43.097Z,74.18
2017-11-09T05:27:43.069Z,74.27
2017-11-09T05:28:43.039Z,74.47
2017-11-09T05:29:43.025Z,74.27
2017-11-09T05:30:42.983Z,73.71
2017-11-09T05:31:42.961Z,73.99
2017-11-09T05:32:42.930Z,74.08
2017-11-09T05:33:42.902Z,73.99
2017-11-09T05:34:42.880Z,73.52
2017-11-09T05:35:42.847Z,73.71
2017-11-09T05:36:43.117Z,73.23
2017-11-09T05:37:42.987Z,73.04
2017-11-09T05:38:42.760Z,73.04
2017-11-09T05:39:42.734Z,72.75
2017-11-09T05:40:42.714Z,72.75
2017-11-09T05:41:42.676Z,73.23
2017-11-09T05:42:42.648Z,72.75
2017-11-09T05:43:42.620Z,72.56
2017-11-09T05:44:42.597Z,72.75
2017-11-09T05:45:42.565Z,73.23
2017-11-09T05:46:42.538Z,73.23
2017-11-09T05:47:42.510Z,73.23
2017-11-09T05:48:42.484Z,72.66
2017-11-09T05:49:42.459Z,72.56
2017-11-09T05:50:42.423Z,72.56
2017-11-09T05:51:42.396Z,72.19
2017-11-09T05:52:42.368Z,72.09
2017-11-09T05:53:42.342Z,72.09
2017-11-09T05:54:42.316Z,72.09
2017-11-09T05:55:42.284Z,72.00
2017-11-09T05:56:42.268Z,72.19
2017-11-09T05:57:42.230Z,72.09
2017-11-09T05:58:42.207Z,71.90
2017-11-09T05:59:42.187Z,72.00
2017-11-09T06:00:42.150Z,71.43
2017-11-09T06:01:42.120Z,71.52
2017-11-09T06:02:42.087Z,71.23
2017-11-09T06:03:42.067Z,71.90
2017-11-09T06:04:42.032Z,71.90
2017-11-09T06:05:42.019Z,71.62
2017-11-09T06:06:41.981Z,71.33
2017-11-09T06:07:41.950Z,71.43
2017-11-09T06:08:41.927Z,71.33
2017-11-09T06:09:41.896Z,71.33
2017-11-09T06:10:41.870Z,70.86
2017-11-09T06:11:41.843Z,71.23
2017-11-09T06:12:41.808Z,71.23
2017-11-09T06:13:41.783Z,71.14
2017-11-09T06:14:41.760Z,70.67
2017-11-09T06:15:41.731Z,70.57
2017-11-09T06:16:41.696Z,70.86
2017-11-09T06:17:41.674Z,70.67
2017-11-09T06:18:41.640Z,70.76
2017-11-09T06:19:41.619Z,70.57
2017-11-09T06:20:41.590Z,70.57
2017-11-09T06:21:41.561Z,70.57
2017-11-09T06:22:41.534Z,70.48
2017-11-09T06:23:41.761Z,70.67
2017-11-09T06:24:41.471Z,70.57
2017-11-09T06:25:41.450Z,70.29
2017-11-09T06:26:41.420Z,70.19
2017-11-09T06:27:41.397Z,70.38
2017-11-09T06:28:41.365Z,70.19
2017-11-09T06:29:41.332Z,70.19
2017-11-09T06:30:41.314Z,70.10
2017-11-09T06:31:41.277Z,70.19
2017-11-09T06:32:41.268Z,70.38
2017-11-09T06:33:41.228Z,70.48
2017-11-09T06:34:41.213Z,70.29
2017-11-09T06:35:41.520Z,70.57
2017-11-09T06:36:41.142Z,70.10
2017-11-09T06:37:41.113Z,70.00
2017-11-09T06:38:41.091Z,70.10
2017-11-09T06:39:41.059Z,69.71
2017-11-09T06:40:41.034Z,70.10
2017-11-09T06:41:41.005Z,69.81
2017-11-09T06:42:40.969Z,70.00
2017-11-09T06:43:40.945Z,69.71
2017-11-09T06:44:40.915Z,70.00
2017-11-09T06:45:40.892Z,70.00
2017-11-09T06:46:40.877Z,69.91
2017-11-09T06:47:41.133Z,69.81
2017-11-09T06:48:40.802Z,70.10
2017-11-09T06:49:40.777Z,69.91
2017-11-09T06:50:40.751Z,69.81
2017-11-09T06:51:40.726Z,70.10
2017-11-09T06:52:40.696Z,69.81
2017-11-09T06:53:40.917Z,69.62
2017-11-09T06:54:40.644Z,70.00
2017-11-09T06:55:40.605Z,69.71
2017-11-09T06:56:40.592Z,69.62
2017-11-09T06:57:40.557Z,69.34
2017-11-09T06:58:40.526Z,69.62
2017-11-09T06:59:40.503Z,69.62
2017-11-09T07:00:40.472Z,69.71
2017-11-09T07:01:40.445Z,69.81
2017-11-09T07:02:40.422Z,69.81
2017-11-09T07:03:40.389Z,69.81
2017-11-09T07:04:40.364Z,69.81
2017-11-09T07:05:40.334Z,69.53
2017-11-09T07:06:40.301Z,69.43
2017-11-09T07:07:40.280Z,69.43
2017-11-09T07:08:40.246Z,69.91
2017-11-09T07:09:40.219Z,69.53
2017-11-09T07:10:40.195Z,69.15
2017-11-09T07:11:40.167Z,69.62
2017-11-09T07:12:40.131Z,69.91
2017-11-09T07:13:40.106Z,69.53
2017-11-09T07:14:40.075Z,69.62
2017-11-09T07:15:40.054Z,69.71
2017-11-09T07:16:40.021Z,69.62
2017-11-09T07:17:39.995Z,69.62
2017-11-09T07:18:39.968Z,69.62
2017-11-09T07:19:39.940Z,69.43
2017-11-09T07:20:39.914Z,69.05
2017-11-09T07:21:39.888Z,69.15
2017-11-09T07:22:39.855Z,69.24
2017-11-09T07:23:39.834Z,69.34
2017-11-09T07:24:39.803Z,69.62
2017-11-09T07:25:39.779Z,69.53
2017-11-09T07:26:39.743Z,69.34
2017-11-09T07:27:39.720Z,69.62
2017-11-09T07:28:39.693Z,69.71
2017-11-09T07:29:39.660Z,70.00
2017-11-09T07:30:39.637Z,69.81
2017-11-09T07:31:39.604Z,69.71
2017-11-09T07:32:39.574Z,69.91
2017-11-09T07:33:39.547Z,69.85
2017-11-09T07:34:39.550Z,69.27
2017-11-09T07:35:39.499Z,69.37
2017-11-09T07:36:39.473Z,69.66
2017-11-09T07:37:39.435Z,69.85
2017-11-09T07:38:39.410Z,70.13
2017-11-09T07:39:39.379Z,70.61
2017-11-09T07:40:39.608Z,70.32
2017-11-09T07:41:39.326Z,70.32
2017-11-09T07:42:39.303Z,70.23
2017-11-09T07:43:39.273Z,70.79
2017-11-09T07:44:39.241Z,70.61
2017-11-09T07:45:39.228Z,70.89
2017-11-09T07:46:39.185Z,70.61
2017-11-09T07:47:39.161Z,71.27
2017-11-09T07:48:39.128Z,70.79
2017-11-09T07:49:39.108Z,71.27
2017-11-09T07:50:39.076Z,71.37
2017-11-09T07:51:39.050Z,71.27
2017-11-09T07:52:39.020Z,71.46
2017-11-09T07:53:38.990Z,71.84
2017-11-09T07:54:38.969Z,71.94
2017-11-09T07:55:38.935Z,72.13
2017-11-09T07:56:38.909Z,72.03
2017-11-09T07:57:38.889Z,72.51
2017-11-09T07:58:38.854Z,72.51
2017-11-09T07:59:38.828Z,72.99
2017-11-09T08:00:38.802Z,72.70
2017-11-09T08:01:38.771Z,73.08
2017-11-09T08:02:38.746Z,72.70
2017-11-09T08:03:38.716Z,72.51
2017-11-09T08:04:38.704Z,72.79
2017-11-09T08:05:38.665Z,72.70
2017-11-09T08:06:38.640Z,73.18
2017-11-09T08:07:38.607Z,74.12
2017-11-09T08:08:38.607Z,73.65
2017-11-09T08:09:38.658Z,74.12
2017-11-09T08:10:38.527Z,73.93
2017-11-09T08:11:38.502Z,73.18
2017-11-09T08:12:38.476Z,74.22
2017-11-09T08:13:38.441Z,77.55
2017-11-09T08:14:38.420Z,76.88
2017-11-09T08:15:38.689Z,78.82
2017-11-09T08:16:38.360Z,79.20
2017-11-09T08:17:38.337Z,79.86
2017-11-09T08:18:38.302Z,78.72
2017-11-09T08:19:38.283Z,79.68
2017-11-09T08:20:38.257Z,78.88
2017-11-09T08:21:38.223Z,78.82
2017-11-09T08:22:38.199Z,79.01
2017-11-09T08:23:38.169Z,78.16
2017-11-09T08:24:38.174Z,79.39
2017-11-09T08:25:38.109Z,78.91
2017-11-09T08:26:38.083Z,79.30
2017-11-09T08:27:38.086Z,79.39
2017-11-09T08:28:38.048Z,79.49
2017-11-09T08:29:37.999Z,80.24
2017-11-09T08:30:37.976Z,79.68
2017-11-09T08:31:37.948Z,80.63
2017-11-09T08:32:37.919Z,78.25
2017-11-09T08:33:37.900Z,80.82
2017-11-09T08:34:37.864Z,80.15
2017-11-09T08:35:37.833Z,80.44
2017-11-09T08:36:37.854Z,80.82
2017-11-09T08:37:37.799Z,79.68
2017-11-09T08:38:37.757Z,79.58
2017-11-09T08:39:37.740Z,79.68
2017-11-09T08:40:37.708Z,79.77
2017-11-09T08:41:37.674Z,79.01
2017-11-09T08:42:37.643Z,79.86
2017-11-09T08:43:37.622Z,78.16
2017-11-09T08:44:37.597Z,79.39
2017-11-09T08:45:37.560Z,80.72
2017-11-09T08:46:37.536Z,79.01
2017-11-09T08:47:37.515Z,79.49
2017-11-09T08:48:37.480Z,79.68
2017-11-09T08:49:37.455Z,78.82
2017-11-09T08:50:37.430Z,79.30
2017-11-09T08:51:37.403Z,79.58
2017-11-09T08:52:37.376Z,79.77
2017-11-09T08:53:37.354Z,79.96
2017-11-09T08:54:37.321Z,79.20
2017-11-09T08:55:37.298Z,79.96
2017-11-09T08:56:37.279Z,79.68
2017-11-09T08:57:37.246Z,79.20
2017-11-09T08:58:37.211Z,80.05
2017-11-09T08:59:37.195Z,80.82
2017-11-09T09:00:37.156Z,80.05
2017-11-09T09:01:37.129Z,79.20
2017-11-09T09:02:37.107Z,79.30
2017-11-09T09:03:37.077Z,79.20
2017-11-09T09:04:37.058Z,79.86
2017-11-09T09:05:37.017Z,79.68
2017-11-09T09:06:37.001Z,79.49
2017-11-09T09:07:36.967Z,78.82
2017-11-09T09:08:36.940Z,79.58
2017-11-09T09:09:36.913Z,79.68
2017-11-09T09:10:36.892Z,78.91
2017-11-09T09:11:36.866Z,79.49
2017-11-09T09:12:36.837Z,79.68
2017-11-09T09:13:36.801Z,79.20
2017-11-09T09:14:36.774Z,79.58
2017-11-09T09:15:36.755Z,78.72
2017-11-09T09:16:36.736Z,79.86
2017-11-09T09:17:36.702Z,79.58
2017-11-09T09:18:36.686Z,79.77
2017-11-09T09:19:36.644Z,79.77
2017-11-09T09:20:36.616Z,78.53
2017-11-09T09:21:36.584Z,78.91
2017-11-09T09:22:36.566Z,79.30
2017-11-09T09:23:36.543Z,79.49
2017-11-09T09:24:36.513Z,79.77
2017-11-09T09:25:36.785Z,79.20
2017-11-09T09:26:36.465Z,79.81
2017-11-09T09:27:36.425Z,79.86
2017-11-09T09:28:36.402Z,80.05
2017-11-09T09:29:36.372Z,80.05
2017-11-09T09:30:36.349Z,79.91
2017-11-09T09:31:36.320Z,79.33
2017-11-09T09:32:36.298Z,80.91
2017-11-09T09:33:36.273Z,79.49
2017-11-09T09:34:36.246Z,80.66
2017-11-09T09:35:36.235Z,79.81
2017-11-09T09:36:36.198Z,80.86
2017-11-09T09:37:36.160Z,80.76
2017-11-09T09:38:36.135Z,80.76
2017-11-09T09:39:36.103Z,81.52
2017-11-09T09:40:36.087Z,81.62
2017-11-09T09:41:36.061Z,81.81
2017-11-09T09:42:36.021Z,81.90
2017-11-09T09:43:35.998Z,81.71
2017-11-09T09:44:35.973Z,81.05
2017-11-09T09:45:35.942Z,82.28
2017-11-09T09:46:35.922Z,81.81
2017-11-09T09:47:35.889Z,82.00
2017-11-09T09:48:35.867Z,81.62
2017-11-09T09:49:35.846Z,80.95
2017-11-09T09:50:35.815Z,80.66
2017-11-09T09:51:35.784Z,80.86
2017-11-09T09:52:35.759Z,81.05
2017-11-09T09:53:35.736Z,80.19
2017-11-09T09:54:35.707Z,80.76
2017-11-09T09:55:35.687Z,80.76
2017-11-09T09:56:35.656Z,81.05
2017-11-09T09:57:35.627Z,81.24
2017-11-09T09:58:35.602Z,80.47
2017-11-09T09:59:35.587Z,81.05
2017-11-09T10:00:35.546Z,79.62
2017-11-09T10:01:35.777Z,79.72
2017-11-09T10:02:35.495Z,79.14
2017-11-09T10:03:35.471Z,80.00
2017-11-09T10:04:35.441Z,80.10
2017-11-09T10:05:35.416Z,79.72
2017-11-09T10:06:35.392Z,79.14
2017-11-09T10:07:35.362Z,79.49
2017-11-09T10:08:35.342Z,79.20
2017-11-09T10:09:35.308Z,79.14
2017-11-09T10:10:35.278Z,78.86
2017-11-09T10:11:35.258Z,79.91
2017-11-09T10:12:35.230Z,79.81
2017-11-09T10:13:35.197Z,80.24
2017-11-09T10:14:35.175Z,79.43
2017-11-09T10:15:35.152Z,79.72
2017-11-09T10:16:35.115Z,80.86
2017-11-09T10:17:35.089Z,80.10
2017-11-09T10:18:35.064Z,79.91
2017-11-09T10:19:35.041Z,80.38
2017-11-09T10:20:35.007Z,80.57
2017-11-09T10:21:34.994Z,80.10
2017-11-09T10:22:34.961Z,80.86
2017-11-09T10:23:34.936Z,80.86
2017-11-09T10:24:34.905Z,81.62
2017-11-09T10:25:34.874Z,81.90
2017-11-09T10:26:34.854Z,81.62
2017-11-09T10:27:34.819Z,82.57
2017-11-09T10:28:34.793Z,82.48
2017-11-09T10:29:34.770Z,83.14
2017-11-09T10:30:34.746Z,83.14
2017-11-09T10:31:34.716Z,82.38
2017-11-09T10:32:34.685Z,83.23
2017-11-09T10:33:34.658Z,82.28
2017-11-09T10:34:34.652Z,82.67
2017-11-09T10:35:34.600Z,83.14
2017-11-09T10:36:34.587Z,82.67
2017-11-09T10:37:34.553Z,83.75
2017-11-09T10:38:34.522Z,84.13
2017-11-09T10:39:34.505Z,85.47
2017-11-09T10:40:34.481Z,85.94
2017-11-09T10:41:34.451Z,85.75
2017-11-09T10:42:34.431Z,85.47
2017-11-09T10:43:34.502Z,86.61
2017-11-09T10:44:34.365Z,85.75
2017-11-09T10:45:34.338Z,85.94
2017-11-09T10:46:34.312Z,86.13
2017-11-09T10:47:34.285Z,86.13
2017-11-09T10:48:34.364Z,85.66
2017-11-09T10:49:34.250Z,86.32
2017-11-09T10:50:34.214Z,86.32
2017-11-09T10:51:34.186Z,86.61
2017-11-09T10:52:34.160Z,88.37
2017-11-09T10:53:34.129Z,89.32
2017-11-09T10:54:34.110Z,90.41
2017-11-09T10:55:34.084Z,89.98
2017-11-09T10:56:34.064Z,89.13
2017-11-09T10:57:34.035Z,88.46
2017-11-09T10:58:34.007Z,88.32
2017-11-09T10:59:33.976Z,87.37
2017-11-09T11:00:33.951Z,87.08
2017-11-09T11:01:33.944Z,86.32
2017-11-09T11:02:33.903Z,86.04
2017-11-09T11:03:33.873Z,86.42
2017-11-09T11:04:33.858Z,86.13
2017-11-09T11:05:33.849Z,86.13
2017-11-09T11:06:33.798Z,86.22
2017-11-09T11:07:33.787Z,85.94
2017-11-09T11:08:33.748Z,86.22
2017-11-09T11:09:33.721Z,86.42
2017-11-09T11:10:33.695Z,87.18
2017-11-09T11:11:33.671Z,87.37
2017-11-09T11:12:33.656Z,85.75
2017-11-09T11:13:33.619Z,86.32
2017-11-09T11:14:33.592Z,87.85
2017-11-09T11:15:33.575Z,87.65
2017-11-09T11:16:33.549Z,86.04
2017-11-09T11:17:33.518Z,86.42
2017-11-09T11:18:33.494Z,86.42
2017-11-09T11:19:33.466Z,84.99
2017-11-09T11:20:33.441Z,85.85
2017-11-09T11:21:33.415Z,85.18
2017-11-09T11:22:33.389Z,84.89
2017-11-09T11:23:33.368Z,85.37
2017-11-09T11:24:33.340Z,85.75
2017-11-09T11:25:33.316Z,85.37
2017-11-09T11:26:33.289Z,85.08
2017-11-09T11:27:33.263Z,84.89
2017-11-09T11:28:33.234Z,86.32
2017-11-09T11:29:33.211Z,86.13
2017-11-09T11:30:33.185Z,86.04
2017-11-09T11:31:33.165Z,86.80
2017-11-09T11:32:33.130Z,86.70
2017-11-09T11:33:33.111Z,86.32
2017-11-09T11:34:33.080Z,87.85
2017-11-09T11:35:33.047Z,87.94
2017-11-09T11:36:33.021Z,88.13
2017-11-09T11:37:32.998Z,87.37
2017-11-09T11:38:32.971Z,88.23
2017-11-09T11:39:32.942Z,87.46
2017-11-09T11:40:32.921Z,86.22
2017-11-09T11:41:32.893Z,88.13
2017-11-09T11:42:32.864Z,87.94
2017-11-09T11:43:32.849Z,88.13
2017-11-09T11:44:32.810Z,87.65
2017-11-09T11:45:32.787Z,87.37
2017-11-09T11:46:32.754Z,87.94
2017-11-09T11:47:33.031Z,88.23
2017-11-09T11:48:32.705Z,88.42
2017-11-09T11:49:32.677Z,88.60
2017-11-09T11:50:32.660Z,88.13
2017-11-09T11:51:32.627Z,88.04
2017-11-09T11:52:32.599Z,88.60
2017-11-09T11:53:32.670Z,90.89
2017-11-09T11:54:32.543Z,89.94
2017-11-09T11:55:32.527Z,89.18
2017-11-09T11:56:32.494Z,89.84
2017-11-09T11:57:32.467Z,89.27
2017-11-09T11:58:32.440Z,90.42
2017-11-09T11:59:32.420Z,90.61
2017-11-09T12:00:32.403Z,90.70
2017-11-09T12:01:32.364Z,90.32
2017-11-09T12:02:32.339Z,90.32
2017-11-09T12:03:32.312Z,90.27
2017-11-09T12:04:32.286Z,90.56
2017-11-09T12:05:32.267Z,90.75
2017-11-09T12:06:32.232Z,91.03
2017-11-09T12:07:32.206Z,90.75
2017-11-09T12:08:32.182Z,90.84
2017-11-09T12:09:32.172Z,89.79
2017-11-09T12:10:32.125Z,90.65
2017-11-09T12:11:32.103Z,90.36
2017-11-09T12:12:32.077Z,90.65
2017-11-09T12:13:32.057Z,89.70
2017-11-09T12:14:32.027Z,89.51
2017-11-09T12:15:32.000Z,89.51
2017-11-09T12:16:31.974Z,88.56
2017-11-09T12:17:31.951Z,89.70
2017-11-09T12:18:31.928Z,89.18
2017-11-09T12:19:31.897Z,89.56
2017-11-09T12:20:31.873Z,89.47
2017-11-09T12:21:31.845Z,88.70
2017-11-09T12:22:31.819Z,88.51
2017-11-09T12:23:31.800Z,89.47
2017-11-09T12:24:31.767Z,88.99
2017-11-09T12:25:31.735Z,88.79
2017-11-09T12:26:31.709Z,92.22
2017-11-09T12:27:31.685Z,90.99
2017-11-09T12:28:31.673Z,90.22
2017-11-09T12:29:31.638Z,90.22
2017-11-09T12:30:31.613Z,89.65
2017-11-09T12:31:31.578Z,90.13
2017-11-09T12:32:31.568Z,89.65
2017-11-09T12:33:31.529Z,90.22
2017-11-09T12:34:31.506Z,89.37
2017-11-09T12:35:31.487Z,89.79
2017-11-09T12:36:31.450Z,90.61
2017-11-09T12:37:31.429Z,89.27
2017-11-09T12:38:31.407Z,90.70
2017-11-09T12:39:31.388Z,90.61
2017-11-09T12:40:31.355Z,90.22
2017-11-09T12:41:31.321Z,90.89
2017-11-09T12:42:31.294Z,90.89
2017-11-09T12:43:31.274Z,91.17
2017-11-09T12:44:31.246Z,90.99
2017-11-09T12:45:31.216Z,90.84
2017-11-09T12:46:31.295Z,90.61
2017-11-09T12:47:31.179Z,90.99
2017-11-09T12:48:31.135Z,90.84
2017-11-09T12:49:31.105Z,90.94
2017-11-09T12:50:31.082Z,91.51
2017-11-09T12:51:31.059Z,90.65
2017-11-09T12:52:31.040Z,89.79